createdAt,value
2019-03-12T00:00:57.169Z,101523.73
2019-03-12T00:03:25.436Z,101519.91
2019-03-12T00:05:53.690Z,101518.15
2019-03-12T00:08:21.952Z,101518.62
2019-03-12T00:10:50.246Z,101513.42
2019-03-12T00:13:18.525Z,101514.34
2019-03-12T00:15:46.819Z,101517.34
2019-03-12T00:18:15.079Z,101518.64
2019-03-12T00:20:43.358Z,101517.35
2019-03-12T00:23:11.625Z,101520.78
2019-03-12T00:25:39.906Z,101528.94
2019-03-12T00:28:08.198Z,101531.98
2019-03-12T00:30:36.469Z,101531.53
2019-03-12T00:33:04.746Z,101529.39
2019-03-12T00:35:33.033Z,101531.59
2019-03-12T00:38:01.307Z,101528.97
2019-03-12T00:40:29.577Z,101533.73
2019-03-12T00:42:57.860Z,101538.05
2019-03-12T00:45:26.115Z,101538.91
2019-03-12T00:47:54.382Z,101536.31
2019-03-12T00:50:22.648Z,101534.61
2019-03-12T00:52:50.932Z,101538.91
2019-03-12T00:55:19.233Z,101541.06
2019-03-12T00:57:47.494Z,101543.25
2019-03-12T01:03:35.650Z,101532.05
2019-03-12T01:06:03.946Z,101538.06
2019-03-12T01:08:32.210Z,101535.47
2019-03-12T01:11:00.540Z,101535.48
2019-03-12T01:13:28.798Z,101546.64
2019-03-12T01:15:57.065Z,101544.06
2019-03-12T01:18:25.325Z,101540.62
2019-03-12T01:20:53.604Z,101545.33
2019-03-12T01:23:21.866Z,101543.62
2019-03-12T01:25:50.142Z,101537.12
2019-03-12T01:28:18.446Z,101540.18
2019-03-12T01:30:46.700Z,101539.33
2019-03-12T01:33:14.970Z,101532.45
2019-03-12T01:35:43.246Z,101527.73
2019-03-12T01:38:11.523Z,101530.74
2019-03-12T01:40:39.812Z,101514.42
2019-03-12T01:43:08.077Z,101516.56
2019-03-12T01:45:36.358Z,101512.64
2019-03-12T01:51:24.473Z,101516.14
2019-03-12T01:53:52.750Z,101512.28
2019-03-12T01:56:21.026Z,101522.17
2019-03-12T01:58:49.317Z,101520.07
2019-03-12T02:01:17.588Z,101532.48
2019-03-12T02:03:45.882Z,101523.89
2019-03-12T02:06:14.155Z,101526.90
2019-03-12T02:08:42.440Z,101532.48
2019-03-12T02:11:10.736Z,101535.05
2019-03-12T02:13:39.021Z,101525.16
2019-03-12T02:16:07.287Z,101529.04
2019-03-12T02:18:35.563Z,101523.88
2019-03-12T02:21:03.830Z,101526.02
2019-03-12T02:23:32.095Z,101527.30
2019-03-12T02:26:00.381Z,101513.98
2019-03-12T02:28:28.680Z,101516.09
2019-03-12T02:30:56.956Z,101516.98
2019-03-12T02:33:25.381Z,101509.21
2019-03-12T02:35:53.578Z,101503.61
2019-03-12T02:38:21.841Z,101501.47
2019-03-12T02:40:50.110Z,101504.07
2019-03-12T02:43:18.386Z,101498.90
2019-03-12T02:45:46.670Z,101498.91
2019-03-12T02:48:14.940Z,101496.33
2019-03-12T02:50:43.209Z,101487.72
2019-03-12T02:53:11.503Z,101485.13
2019-03-12T02:55:39.788Z,101483.40
2019-03-12T02:58:08.068Z,101470.95
2019-03-12T03:00:36.361Z,101472.16
2019-03-12T03:03:04.636Z,101466.98
2019-03-12T03:11:00.838Z,101460.12
2019-03-12T03:13:29.112Z,101466.23
2019-03-12T03:15:57.379Z,101463.17
2019-03-12T03:18:25.657Z,101470.42
2019-03-12T03:20:53.939Z,101468.27
2019-03-12T03:23:22.212Z,101474.64
2019-03-12T03:25:50.490Z,101477.64
2019-03-12T03:28:18.791Z,101478.95
2019-03-12T03:30:47.076Z,101481.91
2019-03-12T03:33:15.341Z,101483.59
2019-03-12T03:35:43.620Z,101483.59
2019-03-12T03:38:11.901Z,101490.00
2019-03-12T03:40:40.171Z,101485.31
2019-03-12T03:43:08.462Z,101491.28
2019-03-12T03:45:36.743Z,101493.42
2019-03-12T03:48:05.139Z,101484.03
2019-03-12T03:50:33.383Z,101477.53
2019-03-12T03:53:01.651Z,101464.16
2019-03-12T03:55:29.982Z,101456.81
2019-03-12T03:57:58.299Z,101461.53
2019-03-12T04:00:26.636Z,101459.04
2019-03-12T04:02:54.937Z,101462.89
2019-03-12T04:05:23.191Z,101451.27
2019-03-12T04:07:51.478Z,101460.30
2019-03-12T04:10:39.092Z,101459.04
2019-03-12T04:13:07.388Z,101459.04
2019-03-12T04:15:35.678Z,101462.02
2019-03-12T04:18:03.966Z,101470.63
2019-03-12T04:20:32.323Z,101466.34
2019-03-12T04:23:00.587Z,101465.90
2019-03-12T04:25:28.847Z,101466.30
2019-03-12T04:27:57.122Z,101459.80
2019-03-12T04:30:25.417Z,101457.57
2019-03-12T04:32:53.751Z,101456.67
2019-03-12T04:38:17.551Z,101447.61
2019-03-12T04:40:45.830Z,101441.52
2019-03-12T04:43:14.094Z,101438.06
2019-03-12T04:45:42.376Z,101448.83
2019-03-12T04:48:10.647Z,101441.09
2019-03-12T04:50:38.916Z,101438.04
2019-03-12T04:53:07.190Z,101438.05
2019-03-12T04:55:35.449Z,101439.72
2019-03-12T04:58:03.726Z,101435.81
2019-03-12T05:00:32.000Z,101439.67
2019-03-12T05:03:00.251Z,101436.14
2019-03-12T05:05:28.534Z,101427.08
2019-03-12T05:07:56.816Z,101428.33
2019-03-12T05:10:25.101Z,101420.61
2019-03-12T05:16:06.566Z,101421.91
2019-03-12T05:18:34.847Z,101413.29
2019-03-12T05:21:03.115Z,101404.67
2019-03-12T05:23:31.394Z,101405.00
2019-03-12T05:25:59.670Z,101395.97
2019-03-12T05:28:27.945Z,101407.13
2019-03-12T05:30:56.226Z,101403.28
2019-03-12T05:33:24.510Z,101403.36
2019-03-12T05:35:52.761Z,101411.45
2019-03-12T05:38:21.053Z,101405.42
2019-03-12T05:40:49.660Z,101408.83
2019-03-12T05:43:17.938Z,101405.75
2019-03-12T05:45:46.227Z,101400.20
2019-03-12T05:48:14.487Z,101396.73
2019-03-12T05:50:43.096Z,101400.17
2019-03-12T05:56:18.877Z,101393.75
2019-03-12T05:58:47.161Z,101391.58
2019-03-12T06:01:15.545Z,101393.66
2019-03-12T06:03:43.812Z,101393.68
2019-03-12T06:06:12.125Z,101400.98
2019-03-12T06:08:40.405Z,101392.34
2019-03-12T06:11:08.680Z,101387.92
2019-03-12T06:13:36.941Z,101387.03
2019-03-12T06:16:05.223Z,101389.63
2019-03-12T06:18:33.504Z,101393.02
2019-03-12T06:21:01.775Z,101396.02
2019-03-12T06:23:30.043Z,101392.13
2019-03-12T06:25:58.322Z,101386.54
2019-03-12T06:28:26.589Z,101390.38
2019-03-12T06:51:54.448Z,101380.38
2019-03-12T07:03:48.932Z,101372.12
2019-03-12T07:12:21.867Z,101366.34
2019-03-12T07:28:22.003Z,101334.89
2019-03-12T08:34:06.746Z,101239.11
2019-03-12T08:39:43.076Z,101229.34
2019-03-12T08:42:30.499Z,101225.20
2019-03-12T08:45:17.901Z,101215.90
2019-03-12T08:50:54.243Z,101202.98
2019-03-12T08:53:41.623Z,101191.03
2019-03-12T08:59:07.983Z,101179.07
2019-03-12T09:01:55.375Z,101172.52
2019-03-12T09:07:31.725Z,101164.60
2019-03-12T09:10:19.124Z,101158.23
2019-03-12T09:13:06.521Z,101151.27
2019-03-12T09:15:53.902Z,101153.08
2019-03-12T09:18:41.288Z,101138.05
2019-03-12T09:29:45.546Z,101116.81
2019-03-12T09:47:12.932Z,101075.97
2019-03-12T09:50:00.813Z,101057.58
2019-03-12T10:49:10.872Z,100943.35
2019-03-12T10:51:39.139Z,100941.87
2019-03-12T10:54:07.391Z,100930.37
2019-03-12T10:59:39.719Z,100928.27
2019-03-12T11:05:45.423Z,100920.38
2019-03-12T11:11:11.263Z,100901.20
2019-03-12T11:13:40.437Z,100892.14
2019-03-12T11:16:08.704Z,100893.49
2019-03-12T11:18:36.974Z,100887.83
2019-03-12T11:21:05.243Z,100870.16
2019-03-12T11:23:33.506Z,100877.95
2019-03-12T11:26:01.763Z,100868.46
2019-03-12T11:28:49.447Z,100864.01
2019-03-12T11:31:17.698Z,100855.47
2019-03-12T11:33:45.975Z,100852.52
2019-03-12T11:39:24.181Z,100847.73
2019-03-12T11:41:52.501Z,100841.28
2019-03-12T11:44:20.719Z,100844.84
2019-03-12T11:46:49.030Z,100839.30
2019-03-12T11:49:17.299Z,100833.69
2019-03-12T11:51:45.561Z,100834.30
2019-03-12T11:54:13.841Z,100831.30
2019-03-12T11:59:39.694Z,100830.66
2019-03-12T12:02:07.963Z,100825.41
2019-03-12T12:10:29.959Z,100767.55
2019-03-12T12:12:58.304Z,100755.09
2019-03-12T12:15:26.584Z,100755.39
2019-03-12T12:17:54.859Z,100750.81
2019-03-12T12:20:29.468Z,100739.83
2019-03-12T12:22:53.118Z,100742.42
2019-03-12T12:32:02.860Z,100698.77
2019-03-12T12:34:31.140Z,100687.33
2019-03-12T12:40:38.111Z,100667.20
2019-03-12T12:43:06.396Z,100645.26
2019-03-12T12:46:08.416Z,100632.81
2019-03-12T12:48:36.685Z,100632.23
2019-03-12T12:51:04.949Z,100630.78
2019-03-12T12:53:33.219Z,100614.73
2019-03-12T12:56:01.511Z,100600.91
2019-03-12T12:58:29.771Z,100587.17
2019-03-12T13:00:58.030Z,100582.77
2019-03-12T13:03:26.301Z,100557.12
2019-03-12T13:12:14.929Z,100548.93
2019-03-12T13:14:43.187Z,100566.48
2019-03-12T13:20:19.087Z,100542.97
2019-03-12T13:22:47.361Z,100542.19
2019-03-12T13:28:27.416Z,100518.86
2019-03-12T13:30:55.673Z,100504.88
2019-03-12T13:33:23.929Z,100493.02
2019-03-12T13:35:52.217Z,100484.09
2019-03-12T13:38:20.460Z,100453.92
2019-03-12T13:40:48.740Z,100441.10
2019-03-12T13:46:09.099Z,100435.65
2019-03-12T13:48:37.371Z,100431.81
2019-03-12T13:51:05.680Z,100424.08
2019-03-12T13:53:53.301Z,100417.94
2019-03-12T13:56:21.546Z,100420.70
2019-03-12T13:58:49.801Z,100416.35
2019-03-12T14:04:14.112Z,100410.44
2019-03-12T14:06:42.359Z,100379.84
2019-03-12T14:09:29.983Z,100379.58
2019-03-12T14:11:59.294Z,100371.72
2019-03-12T14:14:28.256Z,100366.98
2019-03-12T14:16:56.528Z,100365.70
2019-03-12T14:19:24.787Z,100366.28
2019-03-12T14:21:53.156Z,100353.30
2019-03-12T14:24:21.408Z,100348.34
2019-03-12T14:26:49.680Z,100354.51
2019-03-12T14:29:18.013Z,100337.93
2019-03-12T14:31:46.329Z,100323.63
2019-03-12T14:34:14.597Z,100313.69
2019-03-12T14:36:42.859Z,100298.03
2019-03-12T14:42:21.036Z,100287.77
2019-03-12T14:44:49.297Z,100290.30
2019-03-12T14:47:17.636Z,100287.24
2019-03-12T14:49:45.907Z,100272.70
2019-03-12T15:00:44.558Z,100232.80
2019-03-12T15:06:01.771Z,100221.80
2019-03-12T15:08:30.025Z,100198.23
2019-03-12T15:10:58.284Z,100201.00
2019-03-12T15:19:36.480Z,100173.78
2019-03-12T15:22:04.742Z,100168.97
2019-03-12T15:27:51.692Z,100153.76
2019-03-12T15:30:53.514Z,100137.17
2019-03-12T15:33:21.778Z,100123.62
2019-03-12T15:35:50.050Z,100111.17
2019-03-12T15:44:19.505Z,100104.38
2019-03-12T15:46:48.997Z,100099.93
2019-03-12T15:49:17.229Z,100103.37
2019-03-12T15:51:45.496Z,100098.48
2019-03-12T15:54:13.774Z,100094.26
2019-03-12T15:56:42.040Z,100097.42
2019-03-12T15:59:10.301Z,100082.66
2019-03-12T16:04:46.620Z,100073.48
2019-03-12T16:07:14.876Z,100053.69
2019-03-12T16:09:43.149Z,100054.00
2019-03-12T16:12:11.405Z,100045.88
2019-03-12T16:14:39.676Z,100046.27
2019-03-12T16:17:08.743Z,100041.39
2019-03-12T16:19:37.032Z,100032.59
2019-03-12T16:22:05.268Z,100012.81
2019-03-12T16:24:33.520Z,100027.47
2019-03-12T16:27:03.325Z,99995.48
2019-03-12T16:29:31.760Z,99978.36
2019-03-12T16:32:00.026Z,99969.88
2019-03-12T16:34:28.271Z,99949.03
2019-03-12T16:36:56.533Z,99934.29
2019-03-12T16:39:24.790Z,99923.13
2019-03-12T16:41:53.045Z,99909.23
2019-03-12T16:44:21.322Z,99915.00
2019-03-12T16:46:49.588Z,99918.52
2019-03-12T16:49:17.849Z,99895.44
2019-03-12T16:57:35.254Z,99862.85
2019-03-12T17:03:22.647Z,99864.64
2019-03-12T17:09:02.516Z,99844.55
2019-03-12T17:11:30.791Z,99838.05
2019-03-12T17:13:59.064Z,99838.48
2019-03-12T17:16:27.321Z,99836.75
2019-03-12T17:18:55.580Z,99824.22
2019-03-12T17:24:11.146Z,99818.34
2019-03-12T17:26:39.618Z,99820.56
2019-03-12T17:29:07.881Z,99817.85
2019-03-12T17:31:36.142Z,99811.22
2019-03-12T17:34:04.444Z,99817.95
2019-03-12T17:36:32.691Z,99808.02
2019-03-12T17:39:00.964Z,99801.69
2019-03-12T17:41:29.219Z,99805.55
2019-03-12T17:43:58.022Z,99808.83
2019-03-12T17:46:27.471Z,99793.84
2019-03-12T17:48:55.738Z,99799.11
2019-03-12T17:51:24.000Z,99791.09
2019-03-12T17:53:52.252Z,99772.23
2019-03-12T17:56:20.516Z,99774.75
2019-03-12T17:58:48.803Z,99770.09
2019-03-12T18:01:17.006Z,99757.87
2019-03-12T18:03:45.276Z,99763.23
2019-03-12T18:06:13.548Z,99746.67
2019-03-12T18:08:41.804Z,99761.09
2019-03-12T18:11:10.039Z,99743.23
2019-03-12T18:13:38.947Z,99745.17
2019-03-12T18:16:07.195Z,99724.75
2019-03-12T18:18:35.480Z,99732.93
2019-03-12T18:21:03.759Z,99723.96
2019-03-12T18:23:32.013Z,99719.54
2019-03-12T18:26:12.704Z,99687.70
2019-03-12T18:28:40.971Z,99674.82
2019-03-12T18:31:09.228Z,99662.60
2019-03-12T18:33:37.479Z,99655.11
2019-03-12T18:36:05.730Z,99644.19
2019-03-12T18:38:34.014Z,99630.99
2019-03-12T18:41:02.274Z,99608.48
2019-03-12T18:43:30.561Z,99602.38
2019-03-12T18:45:58.816Z,99606.11
2019-03-12T18:48:27.092Z,99609.75
2019-03-12T18:50:55.340Z,99610.44
2019-03-12T18:53:23.628Z,99616.26
2019-03-12T18:56:23.539Z,99594.61
2019-03-12T18:58:51.805Z,99588.41
2019-03-12T19:01:20.051Z,99573.84
2019-03-12T19:03:48.321Z,99561.78
2019-03-12T19:09:43.922Z,99537.55
2019-03-12T19:12:12.176Z,99542.20
2019-03-12T19:14:40.442Z,99534.71
2019-03-12T19:17:08.700Z,99524.66
2019-03-12T19:19:36.963Z,99514.03
2019-03-12T19:22:05.545Z,99510.97
2019-03-12T19:24:33.801Z,99503.94
2019-03-12T19:27:02.066Z,99489.31
2019-03-12T19:29:30.318Z,99469.67
2019-03-12T19:37:26.581Z,99475.78
2019-03-12T19:39:54.865Z,99473.73
2019-03-12T19:42:23.137Z,99476.70
2019-03-12T19:44:51.392Z,99474.83
2019-03-12T19:50:39.392Z,99455.70
2019-03-12T19:53:07.665Z,99455.24
2019-03-12T19:56:07.855Z,99451.34
2019-03-12T19:58:36.125Z,99432.91
2019-03-12T20:01:04.464Z,99435.98
2019-03-12T20:03:32.744Z,99431.73
2019-03-12T20:06:32.307Z,99425.05
2019-03-12T20:09:00.626Z,99430.41
2019-03-12T20:12:00.614Z,99408.08
2019-03-12T20:15:07.601Z,99395.01
2019-03-12T20:18:14.581Z,99391.95
2019-03-12T20:21:21.593Z,99385.17
2019-03-12T20:24:28.569Z,99370.54
2019-03-12T20:27:35.666Z,99354.96
2019-03-12T20:30:35.380Z,99302.55
2019-03-12T20:36:54.590Z,99306.80
2019-03-12T20:40:01.589Z,99307.29
2019-03-12T20:43:08.573Z,99302.75
2019-03-12T20:46:15.539Z,99305.62
2019-03-12T20:49:22.505Z,99306.64
2019-03-12T20:52:29.504Z,99296.35
2019-03-12T20:55:36.478Z,99307.95
2019-03-12T20:58:43.458Z,99294.48
2019-03-12T21:01:50.438Z,99294.78
2019-03-12T21:04:57.433Z,99294.76
2019-03-12T21:08:04.408Z,99287.25
2019-03-12T21:11:04.061Z,99317.11
2019-03-12T21:14:04.010Z,99325.94
2019-03-12T21:17:11.010Z,99306.64
2019-03-12T21:20:18.004Z,99295.41
2019-03-12T21:23:25.002Z,99285.77
2019-03-12T21:26:25.295Z,99303.20
2019-03-12T21:32:44.709Z,99304.22
2019-03-12T21:35:12.980Z,99296.50
2019-03-12T21:37:41.238Z,99300.31
2019-03-12T21:40:49.550Z,99285.73
2019-03-12T21:43:17.801Z,99270.44
2019-03-12T21:45:46.073Z,99263.41
2019-03-12T21:48:14.314Z,99248.23
2019-03-12T21:50:42.589Z,99234.52
2019-03-12T21:53:10.838Z,99225.83
2019-03-12T21:55:39.108Z,99216.00
2019-03-12T21:58:07.379Z,99212.59
2019-03-12T22:00:35.642Z,99198.99
2019-03-12T22:03:03.924Z,99190.37
2019-03-12T22:05:32.198Z,99184.84
2019-03-12T22:08:00.455Z,99176.48
2019-03-12T22:10:28.704Z,99172.14
2019-03-12T22:12:57.073Z,99166.39
2019-03-12T22:15:25.322Z,99172.59
2019-03-12T22:17:53.580Z,99158.05
2019-03-12T22:20:21.857Z,99153.70
2019-03-12T22:23:09.247Z,99138.33
2019-03-12T22:25:37.517Z,99124.20
2019-03-12T22:28:05.770Z,99116.39
2019-03-12T22:30:34.018Z,99128.25
2019-03-12T22:33:02.272Z,99119.47
2019-03-12T22:35:30.586Z,99112.80
2019-03-12T22:37:58.854Z,99100.08
2019-03-12T22:40:27.124Z,99103.61
2019-03-12T22:42:55.375Z,99115.46
2019-03-12T22:45:23.626Z,99100.08
2019-03-12T22:47:51.881Z,99090.27
2019-03-12T22:50:20.226Z,99078.64
2019-03-12T22:52:48.491Z,99065.38
2019-03-12T22:55:16.758Z,99074.73
2019-03-12T22:57:45.009Z,99071.11
2019-03-12T23:00:53.291Z,99073.39
2019-03-12T23:03:21.556Z,99076.63
2019-03-12T23:05:49.824Z,99086.92
2019-03-12T23:08:18.094Z,99077.05
2019-03-12T23:11:18.219Z,99076.54
2019-03-12T23:13:46.492Z,99085.81
2019-03-12T23:16:14.769Z,99100.17
2019-03-12T23:18:43.110Z,99104.43
2019-03-12T23:21:11.357Z,99089.98
2019-03-12T23:23:40.230Z,99087.78
2019-03-12T23:26:08.493Z,99089.80
2019-03-12T23:28:36.747Z,99077.69
2019-03-12T23:31:05.067Z,99073.79
2019-03-12T23:33:33.390Z,99072.13
2019-03-12T23:36:01.721Z,99055.20
2019-03-12T23:38:29.979Z,99047.32
2019-03-12T23:40:58.241Z,99053.52
2019-03-12T23:43:26.527Z,99050.28
2019-03-12T23:45:54.815Z,99042.14
2019-03-12T23:48:23.028Z,99041.78
2019-03-12T23:50:51.315Z,99035.21
2019-03-12T23:53:19.577Z,99023.52
2019-03-12T23:55:47.908Z,99027.87
2019-03-12T23:58:16.174Z,99029.59
